KDMO

Sedalia Regional Airport

Sedalia, Missouri, USA
METAR KDMO 191853Z AUTO 23011G21KT 10SM OVC014 12/11 A3009 RMK AO2 SLP190 T01220106
Observed Flight Rules
Oct-19 @ 18:53 UTC (59 minutes ago) Marginal Visual Flight Rules
Wind Visibility Clouds
230° at 11 knots
 Gusting to 21 knots
10 miles
  • Overcast at 1,400' AGL
Temperatures Readings
Current 12°C / 54°F
Dewpoint 11°C / 52°F
Humidity 94%
Altimeter 30.09" Hg
Pressure 1019 hPa
Elevation 274
METAR KDMO 191853Z AUTO 23011G21KT 10SM OVC014 12/11 A3009 RMK AO2 SLP190 T01220106
Observed Flight Rules
Oct-19 @ 18:53 UTC
(59 minutes ago)
MVFR
Wind Visibility
230° at 11 knots
 Gusting to 21 knots
10 miles
Clouds
  • Overcast at 1,400' AGL
Temperature Dewpoint
12°C / 54°F 11°C / 52°F
Humidity Altimeter Pressure
94% 30.09" Hg 1019 hPa